sensor_id;sensor_type;location;lat;lon;timestamp;pressure;altitude;pressure_sealevel;temperature;humidity
62617;BME280;62539;51.190;6.808;2023-02-18T00:01:16;101989.47;;;20.25;54.24
62617;BME280;62539;51.190;6.808;2023-02-18T00:03:44;101990.38;;;20.22;54.12
62617;BME280;62539;51.190;6.808;2023-02-18T00:08:53;101984.28;;;20.20;54.07
62617;BME280;62539;51.190;6.808;2023-02-18T00:11:20;101993.09;;;20.19;54.27
62617;BME280;62539;51.190;6.808;2023-02-18T00:13:50;101984.34;;;20.17;54.21
62617;BME280;62539;51.190;6.808;2023-02-18T00:16:17;101987.03;;;20.16;54.04
62617;BME280;62539;51.190;6.808;2023-02-18T00:18:42;101980.03;;;20.15;54.30
62617;BME280;62539;51.190;6.808;2023-02-18T00:21:08;101974.78;;;20.13;54.19
62617;BME280;62539;51.190;6.808;2023-02-18T00:23:33;101969.56;;;20.11;54.37
62617;BME280;62539;51.190;6.808;2023-02-18T00:26:01;101977.50;;;20.10;54.30
62617;BME280;62539;51.190;6.808;2023-02-18T00:28:28;101970.47;;;20.09;54.37
62617;BME280;62539;51.190;6.808;2023-02-18T00:30:54;101958.22;;;20.08;54.36
62617;BME280;62539;51.190;6.808;2023-02-18T00:33:20;101951.22;;;20.07;54.32
62617;BME280;62539;51.190;6.808;2023-02-18T00:35:45;101937.22;;;20.05;54.20
62617;BME280;62539;51.190;6.808;2023-02-18T00:38:11;101951.28;;;20.04;54.28
62617;BME280;62539;51.190;6.808;2023-02-18T00:40:37;101942.47;;;20.05;54.26
62617;BME280;62539;51.190;6.808;2023-02-18T00:43:03;101950.44;;;20.03;54.14
62617;BME280;62539;51.190;6.808;2023-02-18T00:45:28;101951.34;;;20.01;54.12
62617;BME280;62539;51.190;6.808;2023-02-18T00:47:54;101948.72;;;20.01;54.31
62617;BME280;62539;51.190;6.808;2023-02-18T00:50:19;101948.75;;;19.99;54.21
62617;BME280;62539;51.190;6.808;2023-02-18T00:52:45;101959.31;;;19.99;54.18
62617;BME280;62539;51.190;6.808;2023-02-18T00:55:10;101940.03;;;19.97;54.21
62617;BME280;62539;51.190;6.808;2023-02-18T00:57:35;101941.78;;;19.96;54.12
62617;BME280;62539;51.190;6.808;2023-02-18T01:00:02;101943.59;;;19.94;54.31
62617;BME280;62539;51.190;6.808;2023-02-18T01:02:29;101931.31;;;19.93;54.31
62617;BME280;62539;51.190;6.808;2023-02-18T01:04:54;101930.47;;;19.91;54.30
62617;BME280;62539;51.190;6.808;2023-02-18T01:07:20;101931.38;;;19.90;54.38
62617;BME280;62539;51.190;6.808;2023-02-18T01:09:45;101927.91;;;19.90;54.11
62617;BME280;62539;51.190;6.808;2023-02-18T01:12:11;101925.25;;;19.88;54.22
62617;BME280;62539;51.190;6.808;2023-02-18T01:14:36;101919.97;;;19.88;54.20
62617;BME280;62539;51.190;6.808;2023-02-18T01:17:02;101912.97;;;19.87;54.19
62617;BME280;62539;51.190;6.808;2023-02-18T01:19:27;101917.41;;;19.87;54.29
62617;BME280;62539;51.190;6.808;2023-02-18T01:21:52;101925.31;;;19.85;54.24
62617;BME280;62539;51.190;6.808;2023-02-18T01:24:18;101919.22;;;19.83;54.13
62617;BME280;62539;51.190;6.808;2023-02-18T01:26:43;101920.94;;;19.84;54.22
62617;BME280;62539;51.190;6.808;2023-02-18T01:29:09;101915.72;;;19.82;54.27
62617;BME280;62539;51.190;6.808;2023-02-18T01:31:34;101919.25;;;19.81;54.33
62617;BME280;62539;51.190;6.808;2023-02-18T01:33:59;101918.38;;;19.81;54.32
62617;BME280;62539;51.190;6.808;2023-02-18T01:36:25;101908.75;;;19.80;54.25
62617;BME280;62539;51.190;6.808;2023-02-18T01:38:50;101906.16;;;19.78;54.09
62617;BME280;62539;51.190;6.808;2023-02-18T01:41:17;101907.91;;;19.78;54.25
62617;BME280;62539;51.190;6.808;2023-02-18T01:43:42;101900.91;;;19.77;54.27
62617;BME280;62539;51.190;6.808;2023-02-18T01:46:13;101893.06;;;19.75;54.20
62617;BME280;62539;51.190;6.808;2023-02-18T01:48:52;101898.34;;;19.75;54.22
62617;BME280;62539;51.190;6.808;2023-02-18T01:51:23;101890.44;;;19.74;54.28
62617;BME280;62539;51.190;6.808;2023-02-18T01:57:13;101882.63;;;19.71;54.24
62617;BME280;62539;51.190;6.808;2023-02-18T01:59:51;101883.53;;;19.69;54.37
62617;BME280;62539;51.190;6.808;2023-02-18T02:02:23;101884.41;;;19.68;54.36
62617;BME280;62539;51.190;6.808;2023-02-18T02:04:51;101882.69;;;19.67;54.29
62617;BME280;62539;51.190;6.808;2023-02-18T02:07:18;101878.31;;;19.68;54.38
62617;BME280;62539;51.190;6.808;2023-02-18T02:09:47;101873.06;;;19.66;54.49
62617;BME280;62539;51.190;6.808;2023-02-18T02:15:16;101876.63;;;19.64;54.46
62617;BME280;62539;51.190;6.808;2023-02-18T02:33:52;101849.69;;;19.51;54.58
62617;BME280;62539;51.190;6.808;2023-02-18T02:36:39;101845.34;;;19.50;54.50
62617;BME280;62539;51.190;6.808;2023-02-18T02:39:37;101843.59;;;19.49;54.58
62617;BME280;62539;51.190;6.808;2023-02-18T02:42:45;101830.44;;;19.49;54.46
62617;BME280;62539;51.190;6.808;2023-02-18T02:56:39;101832.44;;;19.37;54.51
62617;BME280;62539;51.190;6.808;2023-02-18T02:59:08;101835.94;;;19.38;54.59
62617;BME280;62539;51.190;6.808;2023-02-18T03:11:08;101816.75;;;19.33;54.77
62617;BME280;62539;51.190;6.808;2023-02-18T03:14:01;101808.81;;;19.34;54.65
62617;BME280;62539;51.190;6.808;2023-02-18T03:22:12;101798.38;;;19.31;54.74
62617;BME280;62539;51.190;6.808;2023-02-18T03:24:49;101794.84;;;19.32;54.66
62617;BME280;62539;51.190;6.808;2023-02-18T03:27:34;101797.47;;;19.32;54.75
62617;BME280;62539;51.190;6.808;2023-02-18T03:30:31;101799.25;;;19.30;54.73
62617;BME280;62539;51.190;6.808;2023-02-18T03:33:06;101800.16;;;19.31;54.70
62617;BME280;62539;51.190;6.808;2023-02-18T03:35:36;101795.72;;;19.31;54.66
62617;BME280;62539;51.190;6.808;2023-02-18T03:38:14;101793.16;;;19.30;54.64
62617;BME280;62539;51.190;6.808;2023-02-18T03:40:45;101799.25;;;19.30;54.68
62617;BME280;62539;51.190;6.808;2023-02-18T03:43:11;101790.50;;;19.30;54.72
62617;BME280;62539;51.190;6.808;2023-02-18T03:45:36;101785.25;;;19.30;54.68
62617;BME280;62539;51.190;6.808;2023-02-18T03:48:03;101781.75;;;19.29;54.61
62617;BME280;62539;51.190;6.808;2023-02-18T03:50:28;101773.84;;;19.29;54.88
62617;BME280;62539;51.190;6.808;2023-02-18T03:52:54;101776.47;;;19.29;54.70
62617;BME280;62539;51.190;6.808;2023-02-18T03:55:19;101771.22;;;19.29;54.65
62617;BME280;62539;51.190;6.808;2023-02-18T03:57:44;101757.22;;;19.27;54.58
62617;BME280;62539;51.190;6.808;2023-02-18T04:00:10;101750.22;;;19.28;54.64
62617;BME280;62539;51.190;6.808;2023-02-18T04:02:36;101746.75;;;19.26;54.62
62617;BME280;62539;51.190;6.808;2023-02-18T04:05:02;101745.88;;;19.25;54.69
62617;BME280;62539;51.190;6.808;2023-02-18T04:07:27;101740.63;;;19.25;54.63
62617;BME280;62539;51.190;6.808;2023-02-18T04:09:52;101742.41;;;19.24;54.47
62617;BME280;62539;51.190;6.808;2023-02-18T04:12:18;101744.16;;;19.24;54.50
62617;BME280;62539;51.190;6.808;2023-02-18T04:14:43;101741.56;;;19.22;54.54
62617;BME280;62539;51.190;6.808;2023-02-18T04:17:09;101732.78;;;19.22;54.82
62617;BME280;62539;51.190;6.808;2023-02-18T04:19:34;101744.22;;;19.21;54.56
62617;BME280;62539;51.190;6.808;2023-02-18T04:22:00;101726.69;;;19.20;54.74
62617;BME280;62539;51.190;6.808;2023-02-18T04:24:26;101730.22;;;19.19;54.70
62617;BME280;62539;51.190;6.808;2023-02-18T04:26:52;101734.66;;;19.17;54.68
62617;BME280;62539;51.190;6.808;2023-02-18T04:29:17;101729.41;;;19.17;54.77
62617;BME280;62539;51.190;6.808;2023-02-18T04:31:43;101734.66;;;19.17;54.70
62617;BME280;62539;51.190;6.808;2023-02-18T04:34:08;101732.97;;;19.14;54.69
62617;BME280;62539;51.190;6.808;2023-02-18T04:36:34;101721.56;;;19.14;54.82
62617;BME280;62539;51.190;6.808;2023-02-18T04:38:59;101732.97;;;19.14;54.71
62617;BME280;62539;51.190;6.808;2023-02-18T04:41:24;101727.72;;;19.13;54.84
62617;BME280;62539;51.190;6.808;2023-02-18T04:43:50;101730.38;;;19.13;54.71
62617;BME280;62539;51.190;6.808;2023-02-18T04:46:16;101719.84;;;19.13;54.64
62617;BME280;62539;51.190;6.808;2023-02-18T04:48:41;101711.13;;;19.10;54.66
62617;BME280;62539;51.190;6.808;2023-02-18T04:51:07;101706.75;;;19.09;54.95
62617;BME280;62539;51.190;6.808;2023-02-18T04:53:32;101709.38;;;19.09;54.73
62617;BME280;62539;51.190;6.808;2023-02-18T04:55:58;101710.28;;;19.08;54.85
62617;BME280;62539;51.190;6.808;2023-02-18T04:58:23;101708.56;;;19.07;54.71
62617;BME280;62539;51.190;6.808;2023-02-18T05:00:49;101704.19;;;19.06;54.81
62617;BME280;62539;51.190;6.808;2023-02-18T05:03:14;101704.19;;;19.06;54.87
62617;BME280;62539;51.190;6.808;2023-02-18T05:05:40;101706.81;;;19.06;54.78
62617;BME280;62539;51.190;6.808;2023-02-18T05:08:06;101702.41;;;19.08;54.77
62617;BME280;62539;51.190;6.808;2023-02-18T05:10:33;101700.59;;;19.10;54.93
62617;BME280;62539;51.190;6.808;2023-02-18T05:12:59;101700.50;;;19.15;54.87
62617;BME280;62539;51.190;6.808;2023-02-18T05:15:25;101702.13;;;19.21;54.76
62617;BME280;62539;51.190;6.808;2023-02-18T05:17:50;101696.66;;;19.30;54.63
62617;BME280;62539;51.190;6.808;2023-02-18T05:20:16;101699.13;;;19.38;54.39
62617;BME280;62539;51.190;6.808;2023-02-18T05:22:41;101697.19;;;19.46;53.94
62617;BME280;62539;51.190;6.808;2023-02-18T05:25:07;101683.75;;;19.57;53.93
62617;BME280;62539;51.190;6.808;2023-02-18T05:27:33;101685.25;;;19.67;53.74
62617;BME280;62539;51.190;6.808;2023-02-18T05:29:58;101679.75;;;19.77;53.36
62617;BME280;62539;51.190;6.808;2023-02-18T05:32:24;101670.81;;;19.84;53.21
62617;BME280;62539;51.190;6.808;2023-02-18T05:34:49;101663.69;;;19.88;53.07
62617;BME280;62539;51.190;6.808;2023-02-18T05:37:15;101665.31;;;19.93;52.95
62617;BME280;62539;51.190;6.808;2023-02-18T05:39:42;101657.41;;;19.95;52.75
62617;BME280;62539;51.190;6.808;2023-02-18T05:42:08;101653.88;;;19.96;52.72
62617;BME280;62539;51.190;6.808;2023-02-18T05:44:34;101648.50;;;19.99;52.58
62617;BME280;62539;51.190;6.808;2023-02-18T05:47:05;101655.53;;;19.98;52.54
62617;BME280;62539;51.190;6.808;2023-02-18T05:49:34;101653.78;;;19.99;52.51
62617;BME280;62539;51.190;6.808;2023-02-18T05:52:00;101647.63;;;19.98;52.34
62617;BME280;62539;51.190;6.808;2023-02-18T05:54:26;101652.91;;;19.98;52.43
62617;BME280;62539;51.190;6.808;2023-02-18T05:56:53;101651.19;;;19.97;52.28
62617;BME280;62539;51.190;6.808;2023-02-18T05:59:19;101642.38;;;19.98;52.47
62617;BME280;62539;51.190;6.808;2023-02-18T06:01:46;101637.03;;;20.02;52.40
62617;BME280;62539;51.190;6.808;2023-02-18T06:04:12;101640.38;;;20.07;52.13
62617;BME280;62539;51.190;6.808;2023-02-18T06:06:38;101636.78;;;20.11;52.03
62617;BME280;62539;51.190;6.808;2023-02-18T06:09:04;101630.56;;;20.14;51.88
62617;BME280;62539;51.190;6.808;2023-02-18T06:11:30;101627.88;;;20.15;51.78
62617;BME280;62539;51.190;6.808;2023-02-18T06:13:56;101641.03;;;20.17;51.74
62617;BME280;62539;51.190;6.808;2023-02-18T06:16:22;101634.03;;;20.16;51.73
62617;BME280;62539;51.190;6.808;2023-02-18T06:18:48;101636.59;;;20.17;51.61
62617;BME280;62539;51.190;6.808;2023-02-18T06:21:13;101640.97;;;20.18;51.58
62617;BME280;62539;51.190;6.808;2023-02-18T06:23:39;101638.34;;;20.18;51.54
62617;BME280;62539;51.190;6.808;2023-02-18T06:26:05;101629.53;;;20.19;51.62
62617;BME280;62539;51.190;6.808;2023-02-18T06:28:31;101630.44;;;20.18;51.34
62617;BME280;62539;51.190;6.808;2023-02-18T06:30:56;101633.94;;;20.19;51.61
62617;BME280;62539;51.190;6.808;2023-02-18T06:33:22;101632.22;;;20.18;51.41
62617;BME280;62539;51.190;6.808;2023-02-18T06:35:56;101632.25;;;20.16;51.40
62617;BME280;62539;51.190;6.808;2023-02-18T06:38:23;101629.59;;;20.16;51.40
62617;BME280;62539;51.190;6.808;2023-02-18T06:40:49;101631.38;;;20.16;51.67
62617;BME280;62539;51.190;6.808;2023-02-18T06:43:15;101637.47;;;20.18;51.57
62617;BME280;62539;51.190;6.808;2023-02-18T06:45:40;101630.31;;;20.23;51.58
62617;BME280;62539;51.190;6.808;2023-02-18T06:48:05;101627.44;;;20.31;51.30
62617;BME280;62539;51.190;6.808;2023-02-18T06:50:31;101631.63;;;20.38;51.11
62617;BME280;62539;51.190;6.808;2023-02-18T06:52:56;101634.91;;;20.46;50.80
62617;BME280;62539;51.190;6.808;2023-02-18T06:55:24;101628.66;;;20.50;50.82
62617;BME280;62539;51.190;6.808;2023-02-18T06:57:50;101634.66;;;20.55;50.51
62617;BME280;62539;51.190;6.808;2023-02-18T07:00:15;101635.47;;;20.58;50.50
62617;BME280;62539;51.190;6.808;2023-02-18T07:02:41;101635.47;;;20.58;50.49
62617;BME280;62539;51.190;6.808;2023-02-18T07:05:07;101640.75;;;20.58;50.46
62617;BME280;62539;51.190;6.808;2023-02-18T07:07:33;101644.28;;;20.56;50.33
62617;BME280;62539;51.190;6.808;2023-02-18T07:09:58;101635.56;;;20.54;50.28
62617;BME280;62539;51.190;6.808;2023-02-18T07:12:24;101648.81;;;20.51;50.52
62617;BME280;62539;51.190;6.808;2023-02-18T07:14:49;101648.00;;;20.49;50.21
62617;BME280;62539;51.190;6.808;2023-02-18T07:17:14;101647.25;;;20.46;50.29
62617;BME280;62539;51.190;6.808;2023-02-18T07:19:40;101646.44;;;20.44;50.39
62617;BME280;62539;51.190;6.808;2023-02-18T07:22:05;101642.06;;;20.42;50.43
62617;BME280;62539;51.190;6.808;2023-02-18T07:24:31;101635.81;;;20.45;50.71
62617;BME280;62539;51.190;6.808;2023-02-18T07:26:56;101648.88;;;20.50;50.44
62617;BME280;62539;51.190;6.808;2023-02-18T07:29:22;101639.91;;;20.55;50.47
62617;BME280;62539;51.190;6.808;2023-02-18T07:31:47;101634.44;;;20.63;50.16
62617;BME280;62539;51.190;6.808;2023-02-18T07:34:13;101641.28;;;20.69;49.98
62617;BME280;62539;51.190;6.808;2023-02-18T07:36:38;101641.16;;;20.74;49.99
62617;BME280;62539;51.190;6.808;2023-02-18T07:39:03;101648.09;;;20.78;49.67
62617;BME280;62539;51.190;6.808;2023-02-18T07:41:29;101643.66;;;20.80;49.63
62617;BME280;62539;51.190;6.808;2023-02-18T07:43:54;101648.03;;;20.79;49.73
62617;BME280;62539;51.190;6.808;2023-02-18T07:46:20;101655.94;;;20.79;49.45
62617;BME280;62539;51.190;6.808;2023-02-18T07:48:45;101655.09;;;20.79;49.72
62617;BME280;62539;51.190;6.808;2023-02-18T07:51:11;101656.88;;;20.78;49.66
62617;BME280;62539;51.190;6.808;2023-02-18T07:53:37;101666.56;;;20.76;49.68
62617;BME280;62539;51.190;6.808;2023-02-18T07:56:04;101671.94;;;20.73;49.71
62617;BME280;62539;51.190;6.808;2023-02-18T07:58:32;101673.81;;;20.69;49.46
62617;BME280;62539;51.190;6.808;2023-02-18T08:01:03;101675.63;;;20.67;49.80
62617;BME280;62539;51.190;6.808;2023-02-18T08:03:39;101684.38;;;20.68;49.84
62617;BME280;62539;51.190;6.808;2023-02-18T08:06:05;101681.66;;;20.71;49.71
62617;BME280;62539;51.190;6.808;2023-02-18T08:08:32;101678.84;;;20.77;49.58
62617;BME280;62539;51.190;6.808;2023-02-18T08:11:01;101674.31;;;20.82;49.50
62617;BME280;62539;51.190;6.808;2023-02-18T08:13:28;101696.97;;;20.90;49.23
62617;BME280;62539;51.190;6.808;2023-02-18T08:15:56;101695.13;;;20.93;48.96
62617;BME280;62539;51.190;6.808;2023-02-18T08:18:23;101707.34;;;20.96;48.99
62617;BME280;62539;51.190;6.808;2023-02-18T08:20:49;101690.59;;;20.97;49.03
62617;BME280;62539;51.190;6.808;2023-02-18T08:23:19;101701.16;;;20.97;49.13
62617;BME280;62539;51.190;6.808;2023-02-18T08:25:47;101704.75;;;20.94;48.98
62617;BME280;62539;51.190;6.808;2023-02-18T08:28:14;101717.13;;;20.92;49.17
62617;BME280;62539;51.190;6.808;2023-02-18T08:30:46;101725.22;;;20.86;49.37
62617;BME280;62539;51.190;6.808;2023-02-18T08:33:14;101711.25;;;20.82;49.25
62617;BME280;62539;51.190;6.808;2023-02-18T08:35:40;101714.88;;;20.78;49.24
62617;BME280;62539;51.190;6.808;2023-02-18T08:38:06;101715.84;;;20.74;49.53
62617;BME280;62539;51.190;6.808;2023-02-18T08:40:31;101708.84;;;20.73;50.02
62617;BME280;62539;51.190;6.808;2023-02-18T08:42:57;101704.44;;;20.74;50.31
62617;BME280;62539;51.190;6.808;2023-02-18T08:45:22;101699.94;;;20.77;50.52
62617;BME280;62539;51.190;6.808;2023-02-18T08:47:48;101707.69;;;20.83;50.50
62617;BME280;62539;51.190;6.808;2023-02-18T08:50:13;101710.06;;;20.93;50.70
62617;BME280;62539;51.190;6.808;2023-02-18T08:52:39;101711.50;;;21.03;50.43
62617;BME280;62539;51.190;6.808;2023-02-18T08:55:05;101706.06;;;21.09;50.68
62617;BME280;62539;51.190;6.808;2023-02-18T08:57:31;101699.69;;;21.17;50.53
62617;BME280;62539;51.190;6.808;2023-02-18T08:59:57;101700.47;;;21.20;50.06
62617;BME280;62539;51.190;6.808;2023-02-18T09:02:22;101695.97;;;21.22;50.24
62617;BME280;62539;51.190;6.808;2023-02-18T09:04:48;101686.28;;;21.23;49.84
62617;BME280;62539;51.190;6.808;2023-02-18T09:07:13;101691.56;;;21.23;50.01
62617;BME280;62539;51.190;6.808;2023-02-18T09:09:39;101693.41;;;21.21;50.09
62617;BME280;62539;51.190;6.808;2023-02-18T09:12:04;101689.94;;;21.19;49.87
62617;BME280;62539;51.190;6.808;2023-02-18T09:14:30;101684.75;;;21.15;50.17
62617;BME280;62539;51.190;6.808;2023-02-18T09:16:56;101683.03;;;21.14;50.25
62617;BME280;62539;51.190;6.808;2023-02-18T09:19:23;101690.13;;;21.12;50.25
62617;BME280;62539;51.190;6.808;2023-02-18T09:21:48;101686.66;;;21.12;50.40
62617;BME280;62539;51.190;6.808;2023-02-18T09:24:16;101682.22;;;21.12;50.54
62617;BME280;62539;51.190;6.808;2023-02-18T09:26:41;101679.47;;;21.15;50.56
62617;BME280;62539;51.190;6.808;2023-02-18T09:29:08;101673.19;;;21.20;50.63
62617;BME280;62539;51.190;6.808;2023-02-18T09:31:34;101675.66;;;21.26;50.35
62617;BME280;62539;51.190;6.808;2023-02-18T09:34:01;101679.00;;;21.31;50.48
62617;BME280;62539;51.190;6.808;2023-02-18T09:36:27;101683.19;;;21.37;50.36
62617;BME280;62539;51.190;6.808;2023-02-18T09:38:54;101669.88;;;21.41;50.19
62617;BME280;62539;51.190;6.808;2023-02-18T09:41:30;101674.94;;;21.48;50.15
62617;BME280;62539;51.190;6.808;2023-02-18T09:44:05;101671.41;;;21.49;49.59
62617;BME280;62539;51.190;6.808;2023-02-18T09:46:42;101673.97;;;21.50;49.84
62617;BME280;62539;51.190;6.808;2023-02-18T09:49:20;101679.34;;;21.47;49.72
62617;BME280;62539;51.190;6.808;2023-02-18T09:51:49;101673.31;;;21.43;49.44
62617;BME280;62539;51.190;6.808;2023-02-18T09:54:17;101675.25;;;21.38;49.52
62617;BME280;62539;51.190;6.808;2023-02-18T09:56:44;101668.34;;;21.34;49.15
62617;BME280;62539;51.190;6.808;2023-02-18T09:59:19;101670.25;;;21.29;48.85
62617;BME280;62539;51.190;6.808;2023-02-18T10:01:50;101659.84;;;21.24;48.94
62617;BME280;62539;51.190;6.808;2023-02-18T10:04:21;101654.72;;;21.20;48.90
62617;BME280;62539;51.190;6.808;2023-02-18T10:06:55;101647.81;;;21.15;48.38
62617;BME280;62539;51.190;6.808;2023-02-18T10:09:31;101643.56;;;21.11;48.49
62617;BME280;62539;51.190;6.808;2023-02-18T10:12:10;101656.84;;;21.08;48.74
62617;BME280;62539;51.190;6.808;2023-02-18T10:14:40;101651.66;;;21.05;48.64
62617;BME280;62539;51.190;6.808;2023-02-18T10:17:13;101649.13;;;21.02;48.78
62617;BME280;62539;51.190;6.808;2023-02-18T10:19:43;101640.34;;;21.02;48.61
62617;BME280;62539;51.190;6.808;2023-02-18T10:22:13;101637.66;;;21.03;48.53
62617;BME280;62539;51.190;6.808;2023-02-18T10:24:43;101647.19;;;21.07;48.51
62617;BME280;62539;51.190;6.808;2023-02-18T10:27:18;101649.72;;;21.12;48.29
62617;BME280;62539;51.190;6.808;2023-02-18T10:29:54;101660.09;;;21.17;48.05
62617;BME280;62539;51.190;6.808;2023-02-18T10:32:36;101646.88;;;21.18;47.98
62617;BME280;62539;51.190;6.808;2023-02-18T10:35:18;101660.88;;;21.20;48.01
62617;BME280;62539;51.190;6.808;2023-02-18T10:37:59;101667.00;;;21.21;47.77
62617;BME280;62539;51.190;6.808;2023-02-18T10:46:28;101670.66;;;21.17;47.96
62617;BME280;62539;51.190;6.808;2023-02-18T10:52:01;101677.66;;;21.18;48.43
62617;BME280;62539;51.190;6.808;2023-02-18T10:55:06;101688.22;;;21.18;48.68
62617;BME280;62539;51.190;6.808;2023-02-18T10:57:45;101688.28;;;21.16;48.88
62617;BME280;62539;51.190;6.808;2023-02-18T11:02:43;101687.66;;;21.08;48.77
62617;BME280;62539;51.190;6.808;2023-02-18T11:07:53;101686.78;;;21.07;48.27
62617;BME280;62539;51.190;6.808;2023-02-18T11:10:22;101684.22;;;21.04;48.52
62617;BME280;62539;51.190;6.808;2023-02-18T11:12:55;101688.56;;;21.07;48.30
62617;BME280;62539;51.190;6.808;2023-02-18T11:15:26;101693.78;;;21.08;48.05
62617;BME280;62539;51.190;6.808;2023-02-18T11:17:54;101696.38;;;21.10;48.15
62617;BME280;62539;51.190;6.808;2023-02-18T11:20:35;101693.78;;;21.08;47.84
62617;BME280;62539;51.190;6.808;2023-02-18T11:25:34;101686.66;;;21.10;47.56
62617;BME280;62539;51.190;6.808;2023-02-18T11:28:06;101692.88;;;21.09;47.50
62617;BME280;62539;51.190;6.808;2023-02-18T11:30:55;101692.94;;;21.08;47.51
62617;BME280;62539;51.190;6.808;2023-02-18T11:33:36;101691.22;;;21.05;47.58
62617;BME280;62539;51.190;6.808;2023-02-18T11:36:17;101690.41;;;21.03;47.39
62617;BME280;62539;51.190;6.808;2023-02-18T11:39:03;101694.88;;;21.01;47.51
62617;BME280;62539;51.190;6.808;2023-02-18T11:41:38;101686.09;;;21.00;47.67
62617;BME280;62539;51.190;6.808;2023-02-18T11:44:27;101691.41;;;20.99;47.90
62617;BME280;62539;51.190;6.808;2023-02-18T11:47:32;101692.22;;;21.01;47.60
62617;BME280;62539;51.190;6.808;2023-02-18T11:50:09;101683.31;;;21.05;47.95
62617;BME280;62539;51.190;6.808;2023-02-18T11:52:44;101684.94;;;21.09;47.96
62617;BME280;62539;51.190;6.808;2023-02-18T11:55:20;101696.28;;;21.13;48.24
62617;BME280;62539;51.190;6.808;2023-02-18T11:57:59;101686.47;;;21.17;48.02
62617;BME280;62539;51.190;6.808;2023-02-18T12:00:44;101693.41;;;21.21;47.85
62617;BME280;62539;51.190;6.808;2023-02-18T12:03:41;101694.06;;;21.27;47.81
62617;BME280;62539;51.190;6.808;2023-02-18T12:06:22;101691.38;;;21.29;47.75
62617;BME280;62539;51.190;6.808;2023-02-18T12:09:00;101688.69;;;21.30;47.89
62617;BME280;62539;51.190;6.808;2023-02-18T12:11:37;101693.00;;;21.33;47.65
62617;BME280;62539;51.190;6.808;2023-02-18T12:14:16;101693.03;;;21.32;47.96
62617;BME280;62539;51.190;6.808;2023-02-18T12:22:21;101683.47;;;21.29;47.93
62617;BME280;62539;51.190;6.808;2023-02-18T12:25:02;101672.84;;;21.30;48.34
62617;BME280;62539;51.190;6.808;2023-02-18T12:31:01;101669.06;;;21.39;48.63
62617;BME280;62539;51.190;6.808;2023-02-18T12:37:04;101669.41;;;21.55;48.14
62617;BME280;62539;51.190;6.808;2023-02-18T12:40:17;101673.56;;;21.64;47.89
62617;BME280;62539;51.190;6.808;2023-02-18T12:46:21;101684.94;;;21.66;48.18
62617;BME280;62539;51.190;6.808;2023-02-18T12:49:20;101679.66;;;21.66;48.00
62617;BME280;62539;51.190;6.808;2023-02-18T13:00:50;101684.34;;;21.56;50.23
62617;BME280;62539;51.190;6.808;2023-02-18T13:04:08;101679.25;;;21.50;50.39
62617;BME280;62539;51.190;6.808;2023-02-18T13:15:51;101675.22;;;21.67;50.86
62617;BME280;62539;51.190;6.808;2023-02-18T13:18:27;101683.91;;;21.70;50.86
62617;BME280;62539;51.190;6.808;2023-02-18T13:21:00;101678.63;;;21.70;50.81
62617;BME280;62539;51.190;6.808;2023-02-18T13:23:33;101668.00;;;21.72;51.07
62617;BME280;62539;51.190;6.808;2023-02-18T13:26:12;101671.56;;;21.71;50.78
62617;BME280;62539;51.190;6.808;2023-02-18T13:32:08;101674.31;;;21.68;50.93
62617;BME280;62539;51.190;6.808;2023-02-18T13:35:05;101677.06;;;21.65;51.43
62617;BME280;62539;51.190;6.808;2023-02-18T13:40:41;101672.94;;;21.56;50.51
62617;BME280;62539;51.190;6.808;2023-02-18T13:46:17;101671.22;;;21.53;50.70
62617;BME280;62539;51.190;6.808;2023-02-18T13:51:27;101676.28;;;21.61;50.55
62617;BME280;62539;51.190;6.808;2023-02-18T13:54:02;101667.25;;;21.68;50.03
62617;BME280;62539;51.190;6.808;2023-02-18T13:56:34;101666.28;;;21.71;49.72
62617;BME280;62539;51.190;6.808;2023-02-18T13:59:17;101676.84;;;21.71;49.73
62617;BME280;62539;51.190;6.808;2023-02-18T14:01:49;101676.84;;;21.71;49.58
62617;BME280;62539;51.190;6.808;2023-02-18T14:09:55;101678.00;;;21.62;49.87
62617;BME280;62539;51.190;6.808;2023-02-18T14:13:00;101677.28;;;21.57;50.05
62617;BME280;62539;51.190;6.808;2023-02-18T14:15:53;101671.19;;;21.55;49.90
62617;BME280;62539;51.190;6.808;2023-02-18T14:26:07;101669.78;;;21.44;49.96
62617;BME280;62539;51.190;6.808;2023-02-18T14:31:00;101666.31;;;21.42;50.12
62617;BME280;62539;51.190;6.808;2023-02-18T14:47:32;101667.16;;;21.43;50.26
62617;BME280;62539;51.190;6.808;2023-02-18T14:50:21;101655.56;;;21.49;50.37
62617;BME280;62539;51.190;6.808;2023-02-18T14:52:50;101656.19;;;21.55;50.13
62617;BME280;62539;51.190;6.808;2023-02-18T14:58:18;101659.19;;;21.73;50.53
62617;BME280;62539;51.190;6.808;2023-02-18T15:00:57;101661.56;;;21.81;50.56
62617;BME280;62539;51.190;6.808;2023-02-18T15:03:29;101653.66;;;21.81;50.77
62617;BME280;62539;51.190;6.808;2023-02-18T15:05:54;101654.56;;;21.80;50.51
62617;BME280;62539;51.190;6.808;2023-02-18T15:08:22;101652.84;;;21.79;50.49
62617;BME280;62539;51.190;6.808;2023-02-18T15:13:44;101652.13;;;21.73;50.17
62617;BME280;62539;51.190;6.808;2023-02-18T15:16:17;101662.78;;;21.70;50.46
62617;BME280;62539;51.190;6.808;2023-02-18T15:18:52;101656.81;;;21.65;50.54
62617;BME280;62539;51.190;6.808;2023-02-18T15:21:28;101654.25;;;21.62;50.42
62617;BME280;62539;51.190;6.808;2023-02-18T15:24:05;101658.72;;;21.60;50.67
62617;BME280;62539;51.190;6.808;2023-02-18T15:26:36;101660.47;;;21.59;50.78
62617;BME280;62539;51.190;6.808;2023-02-18T15:29:14;101659.56;;;21.61;51.14
62617;BME280;62539;51.190;6.808;2023-02-18T15:31:45;101661.28;;;21.63;51.00
62617;BME280;62539;51.190;6.808;2023-02-18T15:34:34;101653.34;;;21.63;51.08
62617;BME280;62539;51.190;6.808;2023-02-18T15:37:04;101659.34;;;21.68;51.33